sensor_id;sensor_type;location;lat;lon;timestamp;temperature;humidity
15111;DHT22;7656;51.954;7.998;2023-04-15T00:02:18;9.30;99.90
15111;DHT22;7656;51.954;7.998;2023-04-15T00:06:39;9.30;99.90
15111;DHT22;7656;51.954;7.998;2023-04-15T00:11:00;9.20;99.90
15111;DHT22;7656;51.954;7.998;2023-04-15T00:15:25;9.20;99.90
15111;DHT22;7656;51.954;7.998;2023-04-15T00:19:46;9.10;99.90
15111;DHT22;7656;51.954;7.998;2023-04-15T00:24:08;9.10;99.90
15111;DHT22;7656;51.954;7.998;2023-04-15T00:28:29;9.00;99.90
15111;DHT22;7656;51.954;7.998;2023-04-15T00:32:51;8.90;99.90
15111;DHT22;7656;51.954;7.998;2023-04-15T00:37:15;8.90;99.90
15111;DHT22;7656;51.954;7.998;2023-04-15T00:41:36;8.90;99.90
15111;DHT22;7656;51.954;7.998;2023-04-15T00:46:00;8.80;99.90
15111;DHT22;7656;51.954;7.998;2023-04-15T00:50:23;8.70;99.90
15111;DHT22;7656;51.954;7.998;2023-04-15T00:54:44;8.60;99.90
15111;DHT22;7656;51.954;7.998;2023-04-15T00:59:06;8.50;99.90
15111;DHT22;7656;51.954;7.998;2023-04-15T01:03:28;8.50;99.90
15111;DHT22;7656;51.954;7.998;2023-04-15T01:07:50;8.50;99.90
15111;DHT22;7656;51.954;7.998;2023-04-15T01:12:11;8.50;99.90
15111;DHT22;7656;51.954;7.998;2023-04-15T01:16:36;8.40;99.90
15111;DHT22;7656;51.954;7.998;2023-04-15T01:21:04;8.40;99.90
15111;DHT22;7656;51.954;7.998;2023-04-15T01:25:32;8.40;99.90
15111;DHT22;7656;51.954;7.998;2023-04-15T01:29:54;8.30;99.90
15111;DHT22;7656;51.954;7.998;2023-04-15T01:34:15;8.20;99.90
15111;DHT22;7656;51.954;7.998;2023-04-15T01:38:37;8.20;99.90
15111;DHT22;7656;51.954;7.998;2023-04-15T01:42:58;8.10;99.90
15111;DHT22;7656;51.954;7.998;2023-04-15T01:47:19;8.10;99.90
15111;DHT22;7656;51.954;7.998;2023-04-15T01:51:41;8.10;99.90
15111;DHT22;7656;51.954;7.998;2023-04-15T01:56:03;8.10;99.90
15111;DHT22;7656;51.954;7.998;2023-04-15T02:00:24;8.00;99.90
15111;DHT22;7656;51.954;7.998;2023-04-15T02:04:46;8.00;99.90
15111;DHT22;7656;51.954;7.998;2023-04-15T02:09:07;7.90;99.90
15111;DHT22;7656;51.954;7.998;2023-04-15T02:13:28;7.90;99.90
15111;DHT22;7656;51.954;7.998;2023-04-15T02:17:51;7.80;99.90
15111;DHT22;7656;51.954;7.998;2023-04-15T02:22:14;7.80;99.90
15111;DHT22;7656;51.954;7.998;2023-04-15T02:26:40;7.70;99.90
15111;DHT22;7656;51.954;7.998;2023-04-15T02:31:05;7.60;99.90
15111;DHT22;7656;51.954;7.998;2023-04-15T02:35:26;7.70;99.90
15111;DHT22;7656;51.954;7.998;2023-04-15T02:39:48;7.60;99.90
15111;DHT22;7656;51.954;7.998;2023-04-15T02:44:09;7.60;99.90
15111;DHT22;7656;51.954;7.998;2023-04-15T02:48:33;7.50;99.90
15111;DHT22;7656;51.954;7.998;2023-04-15T02:52:54;7.50;99.90
15111;DHT22;7656;51.954;7.998;2023-04-15T02:57:15;7.50;99.90
15111;DHT22;7656;51.954;7.998;2023-04-15T03:01:36;7.50;99.90
15111;DHT22;7656;51.954;7.998;2023-04-15T03:05:57;7.40;99.90
15111;DHT22;7656;51.954;7.998;2023-04-15T03:10:19;7.50;99.90
15111;DHT22;7656;51.954;7.998;2023-04-15T03:14:41;7.40;99.90
15111;DHT22;7656;51.954;7.998;2023-04-15T03:19:02;7.30;99.90
15111;DHT22;7656;51.954;7.998;2023-04-15T03:23:24;7.30;99.90
15111;DHT22;7656;51.954;7.998;2023-04-15T03:27:46;7.30;99.90
15111;DHT22;7656;51.954;7.998;2023-04-15T03:32:07;7.30;99.90
15111;DHT22;7656;51.954;7.998;2023-04-15T03:36:30;7.30;99.90
15111;DHT22;7656;51.954;7.998;2023-04-15T03:40:54;7.20;99.90
15111;DHT22;7656;51.954;7.998;2023-04-15T03:45:16;7.10;99.90
15111;DHT22;7656;51.954;7.998;2023-04-15T03:49:37;7.10;99.90
15111;DHT22;7656;51.954;7.998;2023-04-15T03:53:58;7.20;99.90
15111;DHT22;7656;51.954;7.998;2023-04-15T03:58:19;7.20;99.90
15111;DHT22;7656;51.954;7.998;2023-04-15T04:02:40;7.10;99.90
15111;DHT22;7656;51.954;7.998;2023-04-15T04:07:01;7.10;99.90
15111;DHT22;7656;51.954;7.998;2023-04-15T04:11:22;7.10;99.90
15111;DHT22;7656;51.954;7.998;2023-04-15T04:15:43;7.20;99.90
15111;DHT22;7656;51.954;7.998;2023-04-15T04:20:05;7.30;99.90
15111;DHT22;7656;51.954;7.998;2023-04-15T04:24:27;7.30;99.90
15111;DHT22;7656;51.954;7.998;2023-04-15T04:28:48;7.00;99.90
15111;DHT22;7656;51.954;7.998;2023-04-15T04:33:09;7.00;99.90
15111;DHT22;7656;51.954;7.998;2023-04-15T04:37:30;7.20;99.90
15111;DHT22;7656;51.954;7.998;2023-04-15T04:41:51;7.10;99.90
15111;DHT22;7656;51.954;7.998;2023-04-15T04:46:12;7.10;99.90
15111;DHT22;7656;51.954;7.998;2023-04-15T04:50:34;7.10;99.90
15111;DHT22;7656;51.954;7.998;2023-04-15T04:54:55;7.20;99.90
15111;DHT22;7656;51.954;7.998;2023-04-15T04:59:16;7.20;99.90
15111;DHT22;7656;51.954;7.998;2023-04-15T05:03:37;7.30;99.90
15111;DHT22;7656;51.954;7.998;2023-04-15T05:07:58;7.20;99.90
15111;DHT22;7656;51.954;7.998;2023-04-15T05:12:19;7.30;99.90
15111;DHT22;7656;51.954;7.998;2023-04-15T05:16:40;7.40;99.90
15111;DHT22;7656;51.954;7.998;2023-04-15T05:21:01;7.50;99.90
15111;DHT22;7656;51.954;7.998;2023-04-15T05:25:22;7.60;99.90
15111;DHT22;7656;51.954;7.998;2023-04-15T05:29:44;7.70;99.90
15111;DHT22;7656;51.954;7.998;2023-04-15T05:34:05;7.80;99.90
15111;DHT22;7656;51.954;7.998;2023-04-15T05:38:26;8.00;99.90
15111;DHT22;7656;51.954;7.998;2023-04-15T05:42:48;8.10;99.90
15111;DHT22;7656;51.954;7.998;2023-04-15T05:47:09;8.20;99.90
15111;DHT22;7656;51.954;7.998;2023-04-15T05:51:30;8.40;99.90
15111;DHT22;7656;51.954;7.998;2023-04-15T05:55:51;8.50;99.90
15111;DHT22;7656;51.954;7.998;2023-04-15T06:00:13;8.50;99.90
15111;DHT22;7656;51.954;7.998;2023-04-15T06:04:35;8.60;99.90
15111;DHT22;7656;51.954;7.998;2023-04-15T06:08:56;8.70;99.90
15111;DHT22;7656;51.954;7.998;2023-04-15T06:13:18;8.80;99.90
15111;DHT22;7656;51.954;7.998;2023-04-15T06:17:39;9.00;99.90
15111;DHT22;7656;51.954;7.998;2023-04-15T06:22:00;8.90;99.90
15111;DHT22;7656;51.954;7.998;2023-04-15T06:26:21;8.90;99.90
15111;DHT22;7656;51.954;7.998;2023-04-15T06:30:42;9.00;99.90
15111;DHT22;7656;51.954;7.998;2023-04-15T06:35:03;9.00;99.90
15111;DHT22;7656;51.954;7.998;2023-04-15T06:39:25;8.70;99.90
15111;DHT22;7656;51.954;7.998;2023-04-15T06:43:46;8.70;99.90
15111;DHT22;7656;51.954;7.998;2023-04-15T06:48:07;8.70;99.90
15111;DHT22;7656;51.954;7.998;2023-04-15T06:52:28;8.90;99.90
15111;DHT22;7656;51.954;7.998;2023-04-15T06:56:50;9.10;99.90
15111;DHT22;7656;51.954;7.998;2023-04-15T07:01:12;9.30;99.90
15111;DHT22;7656;51.954;7.998;2023-04-15T07:05:33;9.50;99.90
15111;DHT22;7656;51.954;7.998;2023-04-15T07:09:55;9.60;99.90
15111;DHT22;7656;51.954;7.998;2023-04-15T07:14:16;9.70;99.90
15111;DHT22;7656;51.954;7.998;2023-04-15T07:18:37;9.70;99.90
15111;DHT22;7656;51.954;7.998;2023-04-15T07:22:58;10.20;99.90
15111;DHT22;7656;51.954;7.998;2023-04-15T07:27:19;10.90;99.90
15111;DHT22;7656;51.954;7.998;2023-04-15T07:31:40;11.10;99.90
15111;DHT22;7656;51.954;7.998;2023-04-15T07:36:02;11.30;99.90
15111;DHT22;7656;51.954;7.998;2023-04-15T07:40:23;11.50;99.90
15111;DHT22;7656;51.954;7.998;2023-04-15T07:44:44;11.00;99.90
15111;DHT22;7656;51.954;7.998;2023-04-15T07:49:05;10.40;99.90
15111;DHT22;7656;51.954;7.998;2023-04-15T07:53:27;10.40;99.90
15111;DHT22;7656;51.954;7.998;2023-04-15T07:57:48;10.60;99.90
15111;DHT22;7656;51.954;7.998;2023-04-15T08:02:10;10.40;99.90
15111;DHT22;7656;51.954;7.998;2023-04-15T08:06:31;10.50;99.90
15111;DHT22;7656;51.954;7.998;2023-04-15T08:10:52;10.30;99.90
15111;DHT22;7656;51.954;7.998;2023-04-15T08:15:14;10.60;99.90
15111;DHT22;7656;51.954;7.998;2023-04-15T08:19:35;10.80;99.90
15111;DHT22;7656;51.954;7.998;2023-04-15T08:23:56;11.00;99.90
15111;DHT22;7656;51.954;7.998;2023-04-15T08:28:17;11.40;99.90
15111;DHT22;7656;51.954;7.998;2023-04-15T08:32:38;11.30;99.90
15111;DHT22;7656;51.954;7.998;2023-04-15T08:36:59;11.50;99.90
15111;DHT22;7656;51.954;7.998;2023-04-15T08:41:23;11.30;99.90
15111;DHT22;7656;51.954;7.998;2023-04-15T08:45:45;10.90;99.90
15111;DHT22;7656;51.954;7.998;2023-04-15T08:50:09;10.70;99.90
15111;DHT22;7656;51.954;7.998;2023-04-15T08:54:32;10.90;99.90
15111;DHT22;7656;51.954;7.998;2023-04-15T08:58:54;11.00;99.90
15111;DHT22;7656;51.954;7.998;2023-04-15T09:03:15;11.00;99.90
15111;DHT22;7656;51.954;7.998;2023-04-15T09:07:37;10.80;99.90
15111;DHT22;7656;51.954;7.998;2023-04-15T09:12:00;10.50;99.90
15111;DHT22;7656;51.954;7.998;2023-04-15T09:16:21;10.40;99.90
15111;DHT22;7656;51.954;7.998;2023-04-15T09:20:42;10.40;99.90
15111;DHT22;7656;51.954;7.998;2023-04-15T09:25:23;10.40;99.90
15111;DHT22;7656;51.954;7.998;2023-04-15T09:29:49;10.60;99.90
15111;DHT22;7656;51.954;7.998;2023-04-15T09:34:11;10.60;99.90
15111;DHT22;7656;51.954;7.998;2023-04-15T09:38:32;10.70;99.90
15111;DHT22;7656;51.954;7.998;2023-04-15T09:42:56;10.50;99.90
15111;DHT22;7656;51.954;7.998;2023-04-15T09:47:30;10.30;99.90
15111;DHT22;7656;51.954;7.998;2023-04-15T09:51:57;10.40;99.90
15111;DHT22;7656;51.954;7.998;2023-04-15T09:56:21;10.30;99.90
15111;DHT22;7656;51.954;7.998;2023-04-15T10:00:43;10.30;99.90
15111;DHT22;7656;51.954;7.998;2023-04-15T10:05:04;10.60;99.90
15111;DHT22;7656;51.954;7.998;2023-04-15T10:09:26;11.00;99.90
15111;DHT22;7656;51.954;7.998;2023-04-15T10:13:49;11.10;99.90
15111;DHT22;7656;51.954;7.998;2023-04-15T10:18:15;11.10;99.90
15111;DHT22;7656;51.954;7.998;2023-04-15T10:22:40;11.10;99.90
15111;DHT22;7656;51.954;7.998;2023-04-15T10:27:05;11.10;99.90
15111;DHT22;7656;51.954;7.998;2023-04-15T10:31:27;11.10;99.90
15111;DHT22;7656;51.954;7.998;2023-04-15T10:35:50;11.20;99.90
15111;DHT22;7656;51.954;7.998;2023-04-15T10:40:27;11.30;99.90
15111;DHT22;7656;51.954;7.998;2023-04-15T10:44:55;11.00;99.90
15111;DHT22;7656;51.954;7.998;2023-04-15T10:49:24;10.90;99.90
15111;DHT22;7656;51.954;7.998;2023-04-15T10:53:45;11.00;99.90
15111;DHT22;7656;51.954;7.998;2023-04-15T10:58:08;10.80;99.90
15111;DHT22;7656;51.954;7.998;2023-04-15T11:03:05;10.60;99.90
15111;DHT22;7656;51.954;7.998;2023-04-15T11:12:07;10.60;99.90
15111;DHT22;7656;51.954;7.998;2023-04-15T11:16:29;10.30;99.90
15111;DHT22;7656;51.954;7.998;2023-04-15T11:20:56;10.40;99.90
15111;DHT22;7656;51.954;7.998;2023-04-15T11:25:37;10.30;99.90
15111;DHT22;7656;51.954;7.998;2023-04-15T11:29:58;10.30;99.90
15111;DHT22;7656;51.954;7.998;2023-04-15T11:34:22;10.50;99.90
15111;DHT22;7656;51.954;7.998;2023-04-15T11:38:45;10.50;99.90
15111;DHT22;7656;51.954;7.998;2023-04-15T11:47:41;10.60;99.90
15111;DHT22;7656;51.954;7.998;2023-04-15T11:52:10;10.60;99.90
15111;DHT22;7656;51.954;7.998;2023-04-15T11:56:31;10.60;99.90
15111;DHT22;7656;51.954;7.998;2023-04-15T12:00:54;11.00;99.90
15111;DHT22;7656;51.954;7.998;2023-04-15T12:05:17;10.80;99.90
15111;DHT22;7656;51.954;7.998;2023-04-15T12:09:38;10.80;99.90
15111;DHT22;7656;51.954;7.998;2023-04-15T12:18:58;10.60;99.90
15111;DHT22;7656;51.954;7.998;2023-04-15T12:23:19;10.50;99.90
15111;DHT22;7656;51.954;7.998;2023-04-15T12:27:40;10.50;99.90
15111;DHT22;7656;51.954;7.998;2023-04-15T12:32:09;10.40;99.90
15111;DHT22;7656;51.954;7.998;2023-04-15T12:36:35;10.20;99.90
15111;DHT22;7656;51.954;7.998;2023-04-15T12:40:57;10.40;99.90
15111;DHT22;7656;51.954;7.998;2023-04-15T12:45:18;10.40;99.90
15111;DHT22;7656;51.954;7.998;2023-04-15T12:49:39;10.30;99.90
15111;DHT22;7656;51.954;7.998;2023-04-15T12:54:01;10.20;99.90
15111;DHT22;7656;51.954;7.998;2023-04-15T12:58:22;10.10;99.90
15111;DHT22;7656;51.954;7.998;2023-04-15T13:02:43;10.10;99.90
15111;DHT22;7656;51.954;7.998;2023-04-15T13:07:04;10.00;99.90
15111;DHT22;7656;51.954;7.998;2023-04-15T13:11:26;10.10;99.90
15111;DHT22;7656;51.954;7.998;2023-04-15T13:15:50;10.20;99.90
15111;DHT22;7656;51.954;7.998;2023-04-15T13:20:11;10.20;99.90
15111;DHT22;7656;51.954;7.998;2023-04-15T13:24:32;10.00;99.90
15111;DHT22;7656;51.954;7.998;2023-04-15T13:28:53;10.20;99.90
15111;DHT22;7656;51.954;7.998;2023-04-15T13:33:16;10.20;99.90
15111;DHT22;7656;51.954;7.998;2023-04-15T13:37:37;10.30;99.90
15111;DHT22;7656;51.954;7.998;2023-04-15T13:41:59;10.40;99.90
15111;DHT22;7656;51.954;7.998;2023-04-15T13:46:20;10.10;99.90
15111;DHT22;7656;51.954;7.998;2023-04-15T13:50:41;10.10;99.90
15111;DHT22;7656;51.954;7.998;2023-04-15T13:55:05;10.30;99.90
15111;DHT22;7656;51.954;7.998;2023-04-15T13:59:27;10.40;99.90
15111;DHT22;7656;51.954;7.998;2023-04-15T14:03:48;10.30;99.90
15111;DHT22;7656;51.954;7.998;2023-04-15T14:08:09;10.00;99.90
15111;DHT22;7656;51.954;7.998;2023-04-15T14:12:30;10.00;99.90
15111;DHT22;7656;51.954;7.998;2023-04-15T14:16:51;9.80;99.90
15111;DHT22;7656;51.954;7.998;2023-04-15T14:21:12;9.90;99.90
15111;DHT22;7656;51.954;7.998;2023-04-15T14:25:33;9.90;99.90
15111;DHT22;7656;51.954;7.998;2023-04-15T14:29:54;9.80;99.90
15111;DHT22;7656;51.954;7.998;2023-04-15T14:34:17;9.70;99.90
15111;DHT22;7656;51.954;7.998;2023-04-15T14:38:38;9.70;99.90
15111;DHT22;7656;51.954;7.998;2023-04-15T14:42:59;9.80;99.90
15111;DHT22;7656;51.954;7.998;2023-04-15T14:47:21;9.80;99.90
15111;DHT22;7656;51.954;7.998;2023-04-15T14:51:42;9.60;99.90
15111;DHT22;7656;51.954;7.998;2023-04-15T14:56:03;9.50;99.90
15111;DHT22;7656;51.954;7.998;2023-04-15T15:00:24;9.50;99.90
15111;DHT22;7656;51.954;7.998;2023-04-15T15:04:45;9.50;99.90
15111;DHT22;7656;51.954;7.998;2023-04-15T15:09:06;9.60;99.90
15111;DHT22;7656;51.954;7.998;2023-04-15T15:13:28;9.60;99.90
15111;DHT22;7656;51.954;7.998;2023-04-15T15:17:49;9.60;99.90
15111;DHT22;7656;51.954;7.998;2023-04-15T15:22:10;9.60;99.90
15111;DHT22;7656;51.954;7.998;2023-04-15T15:26:31;9.50;99.90
15111;DHT22;7656;51.954;7.998;2023-04-15T15:30:52;9.40;99.90
15111;DHT22;7656;51.954;7.998;2023-04-15T15:35:13;9.40;99.90
15111;DHT22;7656;51.954;7.998;2023-04-15T15:39:34;9.50;99.90
15111;DHT22;7656;51.954;7.998;2023-04-15T15:43:56;9.70;99.90
15111;DHT22;7656;51.954;7.998;2023-04-15T15:48:17;9.70;99.90
15111;DHT22;7656;51.954;7.998;2023-04-15T15:52:38;9.80;99.90
15111;DHT22;7656;51.954;7.998;2023-04-15T15:56:59;10.00;99.90
15111;DHT22;7656;51.954;7.998;2023-04-15T16:01:21;10.00;99.90
15111;DHT22;7656;51.954;7.998;2023-04-15T16:05:42;10.20;99.90
15111;DHT22;7656;51.954;7.998;2023-04-15T16:10:04;10.10;99.90
15111;DHT22;7656;51.954;7.998;2023-04-15T16:14:25;10.10;99.90
15111;DHT22;7656;51.954;7.998;2023-04-15T16:18:46;9.90;99.90
15111;DHT22;7656;51.954;7.998;2023-04-15T16:23:15;10.00;99.90
15111;DHT22;7656;51.954;7.998;2023-04-15T16:27:36;9.90;99.90
15111;DHT22;7656;51.954;7.998;2023-04-15T16:31:58;9.70;99.90
15111;DHT22;7656;51.954;7.998;2023-04-15T16:36:19;9.70;99.90
15111;DHT22;7656;51.954;7.998;2023-04-15T16:40:40;10.00;99.90
15111;DHT22;7656;51.954;7.998;2023-04-15T16:45:02;10.10;99.90
15111;DHT22;7656;51.954;7.998;2023-04-15T16:49:23;10.10;99.90
15111;DHT22;7656;51.954;7.998;2023-04-15T16:53:44;10.00;99.90
15111;DHT22;7656;51.954;7.998;2023-04-15T16:58:05;9.60;99.90
15111;DHT22;7656;51.954;7.998;2023-04-15T17:02:27;9.80;99.90
15111;DHT22;7656;51.954;7.998;2023-04-15T17:06:49;9.90;99.90
15111;DHT22;7656;51.954;7.998;2023-04-15T17:11:10;9.80;99.90
15111;DHT22;7656;51.954;7.998;2023-04-15T17:15:32;9.90;99.90
15111;DHT22;7656;51.954;7.998;2023-04-15T17:19:53;9.80;99.90
15111;DHT22;7656;51.954;7.998;2023-04-15T17:24:14;9.80;99.90
15111;DHT22;7656;51.954;7.998;2023-04-15T17:28:35;9.80;99.90
15111;DHT22;7656;51.954;7.998;2023-04-15T17:32:56;9.80;99.90
15111;DHT22;7656;51.954;7.998;2023-04-15T17:37:17;9.60;99.90
15111;DHT22;7656;51.954;7.998;2023-04-15T17:41:38;9.70;99.90
15111;DHT22;7656;51.954;7.998;2023-04-15T17:45:59;9.70;99.90
15111;DHT22;7656;51.954;7.998;2023-04-15T17:50:20;9.70;99.90
15111;DHT22;7656;51.954;7.998;2023-04-15T17:54:41;9.70;99.90
15111;DHT22;7656;51.954;7.998;2023-04-15T17:59:02;9.60;99.90
15111;DHT22;7656;51.954;7.998;2023-04-15T18:03:24;9.70;99.90
15111;DHT22;7656;51.954;7.998;2023-04-15T18:07:45;9.90;99.90
15111;DHT22;7656;51.954;7.998;2023-04-15T18:12:07;10.00;99.90
15111;DHT22;7656;51.954;7.998;2023-04-15T18:16:28;10.00;99.90
15111;DHT22;7656;51.954;7.998;2023-04-15T18:20:49;9.90;99.90
15111;DHT22;7656;51.954;7.998;2023-04-15T18:25:11;9.70;99.90
15111;DHT22;7656;51.954;7.998;2023-04-15T18:29:33;9.60;99.90
15111;DHT22;7656;51.954;7.998;2023-04-15T18:33:54;9.70;99.90
15111;DHT22;7656;51.954;7.998;2023-04-15T18:38:16;9.50;99.90
15111;DHT22;7656;51.954;7.998;2023-04-15T18:42:37;9.30;99.90
15111;DHT22;7656;51.954;7.998;2023-04-15T18:46:58;9.30;99.90
15111;DHT22;7656;51.954;7.998;2023-04-15T18:51:19;9.50;99.90
15111;DHT22;7656;51.954;7.998;2023-04-15T18:55:40;9.50;99.90
15111;DHT22;7656;51.954;7.998;2023-04-15T19:00:01;9.40;99.90
15111;DHT22;7656;51.954;7.998;2023-04-15T19:04:23;9.30;99.90
15111;DHT22;7656;51.954;7.998;2023-04-15T19:08:44;9.30;99.90
15111;DHT22;7656;51.954;7.998;2023-04-15T19:13:05;9.20;99.90
15111;DHT22;7656;51.954;7.998;2023-04-15T19:17:26;9.20;99.90
15111;DHT22;7656;51.954;7.998;2023-04-15T19:21:47;9.20;99.90
15111;DHT22;7656;51.954;7.998;2023-04-15T19:26:10;9.10;99.90
15111;DHT22;7656;51.954;7.998;2023-04-15T19:30:32;9.10;99.90
15111;DHT22;7656;51.954;7.998;2023-04-15T19:34:53;9.40;99.90
15111;DHT22;7656;51.954;7.998;2023-04-15T19:39:14;9.50;99.90
15111;DHT22;7656;51.954;7.998;2023-04-15T19:43:36;9.40;99.90
15111;DHT22;7656;51.954;7.998;2023-04-15T19:47:57;9.30;99.90
15111;DHT22;7656;51.954;7.998;2023-04-15T19:52:18;9.40;99.90
15111;DHT22;7656;51.954;7.998;2023-04-15T19:56:39;9.30;99.90
15111;DHT22;7656;51.954;7.998;2023-04-15T20:01:00;9.20;99.90
15111;DHT22;7656;51.954;7.998;2023-04-15T20:05:22;9.10;99.90
15111;DHT22;7656;51.954;7.998;2023-04-15T20:09:43;9.20;99.90
15111;DHT22;7656;51.954;7.998;2023-04-15T20:14:05;9.10;99.90
15111;DHT22;7656;51.954;7.998;2023-04-15T20:18:26;9.10;99.90
15111;DHT22;7656;51.954;7.998;2023-04-15T20:22:48;9.00;99.90
15111;DHT22;7656;51.954;7.998;2023-04-15T20:27:09;9.20;99.90
15111;DHT22;7656;51.954;7.998;2023-04-15T20:31:30;9.20;99.90
15111;DHT22;7656;51.954;7.998;2023-04-15T20:35:52;9.30;99.90
15111;DHT22;7656;51.954;7.998;2023-04-15T20:40:13;9.20;99.90
15111;DHT22;7656;51.954;7.998;2023-04-15T20:44:38;9.30;99.90
15111;DHT22;7656;51.954;7.998;2023-04-15T20:48:59;9.20;99.90
15111;DHT22;7656;51.954;7.998;2023-04-15T20:53:20;9.20;99.90
15111;DHT22;7656;51.954;7.998;2023-04-15T20:57:42;9.20;99.90
15111;DHT22;7656;51.954;7.998;2023-04-15T21:02:03;9.20;99.90
15111;DHT22;7656;51.954;7.998;2023-04-15T21:06:24;9.20;99.90
15111;DHT22;7656;51.954;7.998;2023-04-15T21:10:46;9.30;99.90
15111;DHT22;7656;51.954;7.998;2023-04-15T21:15:08;9.20;99.90
15111;DHT22;7656;51.954;7.998;2023-04-15T21:19:29;9.10;99.90
15111;DHT22;7656;51.954;7.998;2023-04-15T21:23:50;9.20;99.90
15111;DHT22;7656;51.954;7.998;2023-04-15T21:28:11;9.30;99.90
15111;DHT22;7656;51.954;7.998;2023-04-15T21:32:33;9.40;99.90
15111;DHT22;7656;51.954;7.998;2023-04-15T21:36:54;9.40;99.90
15111;DHT22;7656;51.954;7.998;2023-04-15T21:41:15;9.40;99.90
15111;DHT22;7656;51.954;7.998;2023-04-15T21:45:36;9.30;99.90
15111;DHT22;7656;51.954;7.998;2023-04-15T21:49:59;9.30;99.90
15111;DHT22;7656;51.954;7.998;2023-04-15T21:54:21;9.40;99.90
15111;DHT22;7656;51.954;7.998;2023-04-15T21:58:42;9.50;99.90
15111;DHT22;7656;51.954;7.998;2023-04-15T22:03:03;9.40;99.90
15111;DHT22;7656;51.954;7.998;2023-04-15T22:07:24;9.50;99.90
15111;DHT22;7656;51.954;7.998;2023-04-15T22:11:45;9.40;99.90
15111;DHT22;7656;51.954;7.998;2023-04-15T22:16:07;9.50;99.90
15111;DHT22;7656;51.954;7.998;2023-04-15T22:20:28;9.40;99.90
15111;DHT22;7656;51.954;7.998;2023-04-15T22:24:49;9.50;99.90
15111;DHT22;7656;51.954;7.998;2023-04-15T22:29:10;9.50;99.90
15111;DHT22;7656;51.954;7.998;2023-04-15T22:33:31;9.70;99.90
15111;DHT22;7656;51.954;7.998;2023-04-15T22:37:53;9.60;99.90
15111;DHT22;7656;51.954;7.998;2023-04-15T22:42:14;9.60;99.90
15111;DHT22;7656;51.954;7.998;2023-04-15T22:46:36;9.70;99.90
15111;DHT22;7656;51.954;7.998;2023-04-15T22:50:58;9.60;99.90
15111;DHT22;7656;51.954;7.998;2023-04-15T22:55:19;9.60;99.90
15111;DHT22;7656;51.954;7.998;2023-04-15T22:59:40;9.60;99.90
15111;DHT22;7656;51.954;7.998;2023-04-15T23:04:01;9.80;99.90
15111;DHT22;7656;51.954;7.998;2023-04-15T23:08:22;9.70;99.90
15111;DHT22;7656;51.954;7.998;2023-04-15T23:12:43;9.70;99.90
15111;DHT22;7656;51.954;7.998;2023-04-15T23:17:04;9.80;99.90
15111;DHT22;7656;51.954;7.998;2023-04-15T23:21:26;9.90;99.90
15111;DHT22;7656;51.954;7.998;2023-04-15T23:25:47;9.90;99.90
15111;DHT22;7656;51.954;7.998;2023-04-15T23:30:09;10.00;99.90
15111;DHT22;7656;51.954;7.998;2023-04-15T23:34:30;10.00;99.90
15111;DHT22;7656;51.954;7.998;2023-04-15T23:38:51;10.00;99.90
15111;DHT22;7656;51.954;7.998;2023-04-15T23:43:12;9.90;99.90
15111;DHT22;7656;51.954;7.998;2023-04-15T23:47:33;9.90;99.90
15111;DHT22;7656;51.954;7.998;2023-04-15T23:51:55;10.00;99.90
15111;DHT22;7656;51.954;7.998;2023-04-15T23:56:17;10.00;99.90
